sensor_id;sensor_type;location;lat;lon;timestamp;pressure;altitude;pressure_sealevel;temperature;humidity
53011;BME280;42803;55.762;38.084;2022-12-07T00:01:31;100867.13;;;-11.84;88.75
53011;BME280;42803;55.762;38.084;2022-12-07T00:04:02;100855.88;;;-11.86;88.64
53011;BME280;42803;55.762;38.084;2022-12-07T00:06:33;100854.06;;;-11.91;88.34
53011;BME280;42803;55.762;38.084;2022-12-07T00:09:05;100856.69;;;-11.95;88.37
53011;BME280;42803;55.762;38.084;2022-12-07T00:11:34;100856.69;;;-11.95;88.63
53011;BME280;42803;55.762;38.084;2022-12-07T00:14:07;100853.59;;;-11.98;88.46
53011;BME280;42803;55.762;38.084;2022-12-07T00:16:36;100855.56;;;-12.01;88.58
53011;BME280;42803;55.762;38.084;2022-12-07T00:19:05;100850.53;;;-12.01;88.75
53011;BME280;42803;55.762;38.084;2022-12-07T00:21:35;100853.50;;;-12.08;88.68
53011;BME280;42803;55.762;38.084;2022-12-07T00:24:06;100863.66;;;-12.12;88.56
53011;BME280;42803;55.762;38.084;2022-12-07T00:26:36;100851.78;;;-12.17;89.04
53011;BME280;42803;55.762;38.084;2022-12-07T00:29:07;100857.28;;;-12.24;89.13
53011;BME280;42803;55.762;38.084;2022-12-07T00:31:37;100862.25;;;-12.20;89.43
53011;BME280;42803;55.762;38.084;2022-12-07T00:34:11;100857.56;;;-12.22;89.39
53011;BME280;42803;55.762;38.084;2022-12-07T00:36:41;100855.50;;;-12.29;89.12
53011;BME280;42803;55.762;38.084;2022-12-07T00:39:11;100854.06;;;-12.37;89.45
53011;BME280;42803;55.762;38.084;2022-12-07T00:41:41;100860.03;;;-12.36;89.55
53011;BME280;42803;55.762;38.084;2022-12-07T00:44:10;100850.94;;;-12.36;89.40
53011;BME280;42803;55.762;38.084;2022-12-07T00:46:39;100852.88;;;-12.39;89.38
53011;BME280;42803;55.762;38.084;2022-12-07T00:49:08;100870.19;;;-12.40;89.68
53011;BME280;42803;55.762;38.084;2022-12-07T00:51:38;100867.13;;;-12.43;89.60
53011;BME280;42803;55.762;38.084;2022-12-07T00:54:07;100861.50;;;-12.46;89.59
53011;BME280;42803;55.762;38.084;2022-12-07T00:56:37;100871.66;;;-12.50;90.08
53011;BME280;42803;55.762;38.084;2022-12-07T00:59:06;100861.09;;;-12.58;89.84
53011;BME280;42803;55.762;38.084;2022-12-07T01:01:36;100866.78;;;-12.59;90.28
53011;BME280;42803;55.762;38.084;2022-12-07T01:04:05;100856.84;;;-12.67;90.29
53011;BME280;42803;55.762;38.084;2022-12-07T01:06:35;100855.16;;;-12.76;90.46
53011;BME280;42803;55.762;38.084;2022-12-07T01:09:04;100865.94;;;-12.81;90.73
53011;BME280;42803;55.762;38.084;2022-12-07T01:11:33;100855.88;;;-12.81;91.01
53011;BME280;42803;55.762;38.084;2022-12-07T01:14:04;100862.84;;;-12.84;91.09
53011;BME280;42803;55.762;38.084;2022-12-07T01:16:33;100859.69;;;-12.83;91.22
53011;BME280;42803;55.762;38.084;2022-12-07T01:19:02;100857.38;;;-12.78;91.82
53011;BME280;42803;55.762;38.084;2022-12-07T01:21:36;100851.56;;;-12.86;91.68
53011;BME280;42803;55.762;38.084;2022-12-07T01:24:09;100859.16;;;-12.90;91.51
53011;BME280;42803;55.762;38.084;2022-12-07T01:26:39;100847.59;;;-12.94;92.05
53011;BME280;42803;55.762;38.084;2022-12-07T01:29:10;100856.16;;;-12.97;92.32
53011;BME280;42803;55.762;38.084;2022-12-07T01:31:39;100849.94;;;-12.99;92.34
53011;BME280;42803;55.762;38.084;2022-12-07T01:34:08;100855.94;;;-13.03;92.59
53011;BME280;42803;55.762;38.084;2022-12-07T01:36:37;100856.94;;;-13.07;92.49
53011;BME280;42803;55.762;38.084;2022-12-07T01:39:07;100856.94;;;-13.07;92.74
53011;BME280;42803;55.762;38.084;2022-12-07T01:41:39;100850.06;;;-13.08;92.92
53011;BME280;42803;55.762;38.084;2022-12-07T01:44:16;100849.13;;;-13.08;93.09
53011;BME280;42803;55.762;38.084;2022-12-07T01:46:45;100852.00;;;-13.11;93.08
53011;BME280;42803;55.762;38.084;2022-12-07T01:49:23;100852.06;;;-13.15;93.18
53011;BME280;42803;55.762;38.084;2022-12-07T01:52:01;100844.53;;;-13.15;93.28
53011;BME280;42803;55.762;38.084;2022-12-07T01:54:34;100850.22;;;-13.16;93.37
53011;BME280;42803;55.762;38.084;2022-12-07T01:57:04;100852.81;;;-13.20;93.10
53011;BME280;42803;55.762;38.084;2022-12-07T01:59:36;100847.56;;;-13.25;93.67
53011;BME280;42803;55.762;38.084;2022-12-07T02:02:10;100847.84;;;-13.24;93.77
53011;BME280;42803;55.762;38.084;2022-12-07T02:08:59;100844.47;;;-13.29;93.44
53011;BME280;42803;55.762;38.084;2022-12-07T02:11:28;100845.78;;;-13.31;93.72
53011;BME280;42803;55.762;38.084;2022-12-07T02:13:57;100854.59;;;-13.33;93.68
53011;BME280;42803;55.762;38.084;2022-12-07T02:16:34;100840.19;;;-13.34;94.07
53011;BME280;42803;55.762;38.084;2022-12-07T02:19:39;100842.44;;;-13.39;93.79
53011;BME280;42803;55.762;38.084;2022-12-07T02:22:27;100842.50;;;-13.43;94.25
53011;BME280;42803;55.762;38.084;2022-12-07T02:25:08;100835.97;;;-13.47;94.46
53011;BME280;42803;55.762;38.084;2022-12-07T02:27:46;100841.97;;;-13.46;94.62
53011;BME280;42803;55.762;38.084;2022-12-07T02:30:18;100840.06;;;-13.47;94.33
53011;BME280;42803;55.762;38.084;2022-12-07T02:32:54;100832.53;;;-13.47;94.35
53011;BME280;42803;55.762;38.084;2022-12-07T02:35:30;100837.28;;;-13.49;94.93
53011;BME280;42803;55.762;38.084;2022-12-07T02:38:05;100832.66;;;-13.56;95.03
53011;BME280;42803;55.762;38.084;2022-12-07T02:40:40;100832.09;;;-13.59;95.22
53011;BME280;42803;55.762;38.084;2022-12-07T02:43:15;100833.97;;;-13.58;95.13
53011;BME280;42803;55.762;38.084;2022-12-07T02:45:47;100831.22;;;-13.63;95.51
53011;BME280;42803;55.762;38.084;2022-12-07T02:48:19;100832.16;;;-13.63;95.69
53011;BME280;42803;55.762;38.084;2022-12-07T02:50:50;100835.31;;;-13.64;95.66
53011;BME280;42803;55.762;38.084;2022-12-07T02:53:37;100837.63;;;-13.73;95.83
53011;BME280;42803;55.762;38.084;2022-12-07T02:56:11;100838.66;;;-13.77;96.43
53011;BME280;42803;55.762;38.084;2022-12-07T02:58:52;100833.75;;;-13.85;96.44
53011;BME280;42803;55.762;38.084;2022-12-07T03:01:31;100828.91;;;-13.97;96.74
53011;BME280;42803;55.762;38.084;2022-12-07T03:04:14;100840.34;;;-14.08;97.36
53011;BME280;42803;55.762;38.084;2022-12-07T03:06:50;100837.88;;;-14.12;97.92
53011;BME280;42803;55.762;38.084;2022-12-07T03:09:27;100827.94;;;-14.20;98.32
53011;BME280;42803;55.762;38.084;2022-12-07T03:12:01;100828.66;;;-14.25;98.61
53011;BME280;42803;55.762;38.084;2022-12-07T03:14:38;100830.28;;;-14.30;99.22
53011;BME280;42803;55.762;38.084;2022-12-07T03:17:14;100825.59;;;-14.32;99.78
53011;BME280;42803;55.762;38.084;2022-12-07T03:19:45;100830.88;;;-14.27;100.00
53011;BME280;42803;55.762;38.084;2022-12-07T03:22:16;100827.47;;;-14.31;100.00
53011;BME280;42803;55.762;38.084;2022-12-07T03:24:49;100826.31;;;-14.37;100.00
53011;BME280;42803;55.762;38.084;2022-12-07T03:27:22;100827.53;;;-14.35;100.00
53011;BME280;42803;55.762;38.084;2022-12-07T03:29:55;100830.03;;;-14.35;100.00
53011;BME280;42803;55.762;38.084;2022-12-07T03:32:36;100830.97;;;-14.35;100.00
53011;BME280;42803;55.762;38.084;2022-12-07T03:35:10;100826.31;;;-14.37;100.00
53011;BME280;42803;55.762;38.084;2022-12-07T03:37:46;100821.28;;;-14.37;100.00
53011;BME280;42803;55.762;38.084;2022-12-07T03:40:23;100821.63;;;-14.40;100.00
53011;BME280;42803;55.762;38.084;2022-12-07T03:42:55;100824.41;;;-14.38;100.00
53011;BME280;42803;55.762;38.084;2022-12-07T03:45:31;100831.38;;;-14.41;100.00
53011;BME280;42803;55.762;38.084;2022-12-07T03:48:07;100826.97;;;-14.42;100.00
53011;BME280;42803;55.762;38.084;2022-12-07T03:50:44;100833.63;;;-14.47;100.00
53011;BME280;42803;55.762;38.084;2022-12-07T03:53:19;100827.03;;;-14.46;100.00
53011;BME280;42803;55.762;38.084;2022-12-07T03:55:52;100832.13;;;-14.51;100.00
53011;BME280;42803;55.762;38.084;2022-12-07T03:58:25;100825.25;;;-14.52;100.00
53011;BME280;42803;55.762;38.084;2022-12-07T04:00:55;100828.41;;;-14.53;100.00
53011;BME280;42803;55.762;38.084;2022-12-07T04:03:26;100827.13;;;-14.51;100.00
53011;BME280;42803;55.762;38.084;2022-12-07T04:05:55;100828.03;;;-14.50;100.00
53011;BME280;42803;55.762;38.084;2022-12-07T04:08:25;100827.81;;;-14.56;100.00
53011;BME280;42803;55.762;38.084;2022-12-07T04:10:54;100826.06;;;-14.65;100.00
53011;BME280;42803;55.762;38.084;2022-12-07T04:13:23;100822.31;;;-14.67;100.00
53011;BME280;42803;55.762;38.084;2022-12-07T04:15:53;100821.03;;;-14.65;100.00
53011;BME280;42803;55.762;38.084;2022-12-07T04:18:22;100825.78;;;-14.70;100.00
53011;BME280;42803;55.762;38.084;2022-12-07T04:20:52;100824.25;;;-14.74;100.00
53011;BME280;42803;55.762;38.084;2022-12-07T04:23:22;100824.25;;;-14.74;100.00
53011;BME280;42803;55.762;38.084;2022-12-07T04:25:51;100819.25;;;-14.74;100.00
53011;BME280;42803;55.762;38.084;2022-12-07T04:28:20;100827.41;;;-14.75;100.00
53011;BME280;42803;55.762;38.084;2022-12-07T04:30:49;100830.63;;;-14.80;100.00
53011;BME280;42803;55.762;38.084;2022-12-07T04:33:18;100823.09;;;-14.80;100.00
53011;BME280;42803;55.762;38.084;2022-12-07T04:35:47;100826.84;;;-14.82;100.00
53011;BME280;42803;55.762;38.084;2022-12-07T04:38:18;100823.09;;;-14.80;100.00
53011;BME280;42803;55.762;38.084;2022-12-07T04:40:47;100824.31;;;-14.78;100.00
53011;BME280;42803;55.762;38.084;2022-12-07T04:43:15;100818.66;;;-14.77;100.00
53011;BME280;42803;55.762;38.084;2022-12-07T04:45:46;100821.19;;;-14.81;100.00
53011;BME280;42803;55.762;38.084;2022-12-07T04:48:15;100818.09;;;-14.84;100.00
53011;BME280;42803;55.762;38.084;2022-12-07T04:50:47;100824.03;;;-14.80;100.00
53011;BME280;42803;55.762;38.084;2022-12-07T04:53:18;100822.41;;;-14.75;100.00
53011;BME280;42803;55.762;38.084;2022-12-07T04:55:47;100823.22;;;-14.66;100.00
53011;BME280;42803;55.762;38.084;2022-12-07T04:58:16;100814.13;;;-14.66;100.00
53011;BME280;42803;55.762;38.084;2022-12-07T05:00:46;100813.75;;;-14.59;100.00
53011;BME280;42803;55.762;38.084;2022-12-07T05:03:15;100820.56;;;-14.54;100.00
53011;BME280;42803;55.762;38.084;2022-12-07T05:05:44;100823.41;;;-14.53;100.00
53011;BME280;42803;55.762;38.084;2022-12-07T05:08:13;100817.50;;;-14.57;100.00
53011;BME280;42803;55.762;38.084;2022-12-07T05:10:44;100814.09;;;-14.62;100.00
53011;BME280;42803;55.762;38.084;2022-12-07T05:13:13;100823.50;;;-14.61;100.00
53011;BME280;42803;55.762;38.084;2022-12-07T05:15:42;100825.34;;;-14.60;100.00
53011;BME280;42803;55.762;38.084;2022-12-07T05:18:11;100827.53;;;-14.57;100.00
53011;BME280;42803;55.762;38.084;2022-12-07T05:20:41;100827.22;;;-14.59;100.00
53011;BME280;42803;55.762;38.084;2022-12-07T05:23:10;100816.25;;;-14.59;100.00
53011;BME280;42803;55.762;38.084;2022-12-07T05:25:40;100814.69;;;-14.59;100.00
53011;BME280;42803;55.762;38.084;2022-12-07T05:28:10;100818.78;;;-14.59;100.00
53011;BME280;42803;55.762;38.084;2022-12-07T05:30:40;100822.22;;;-14.59;100.00
53011;BME280;42803;55.762;38.084;2022-12-07T05:33:09;100825.53;;;-14.50;100.00
53011;BME280;42803;55.762;38.084;2022-12-07T05:35:38;100818.91;;;-14.45;100.00
53011;BME280;42803;55.762;38.084;2022-12-07T05:38:08;100821.91;;;-14.38;100.00
53011;BME280;42803;55.762;38.084;2022-12-07T05:40:37;100821.63;;;-14.40;100.00
53011;BME280;42803;55.762;38.084;2022-12-07T05:43:06;100819.78;;;-14.41;100.00
53011;BME280;42803;55.762;38.084;2022-12-07T05:45:36;100824.41;;;-14.38;100.00
53011;BME280;42803;55.762;38.084;2022-12-07T05:48:06;100818.19;;;-14.14;100.00
53011;BME280;42803;55.762;38.084;2022-12-07T05:50:35;100817.94;;;-13.98;100.00
53011;BME280;42803;55.762;38.084;2022-12-07T05:53:04;100818.75;;;-13.67;100.00
53011;BME280;42803;55.762;38.084;2022-12-07T05:55:34;100819.63;;;-13.45;100.00
53011;BME280;42803;55.762;38.084;2022-12-07T05:58:03;100814.66;;;-13.27;100.00
53011;BME280;42803;55.762;38.084;2022-12-07T06:00:53;100822.31;;;-13.35;100.00
53011;BME280;42803;55.762;38.084;2022-12-07T06:03:23;100808.88;;;-13.40;100.00
53011;BME280;42803;55.762;38.084;2022-12-07T06:05:52;100811.31;;;-13.36;100.00
53011;BME280;42803;55.762;38.084;2022-12-07T06:08:22;100808.88;;;-13.40;100.00
53011;BME280;42803;55.762;38.084;2022-12-07T06:10:51;100811.31;;;-13.36;100.00
53011;BME280;42803;55.762;38.084;2022-12-07T06:13:40;100805.75;;;-13.39;100.00
53011;BME280;42803;55.762;38.084;2022-12-07T06:16:15;100804.94;;;-13.12;100.00
53011;BME280;42803;55.762;38.084;2022-12-07T06:18:44;100801.72;;;-12.75;100.00
53011;BME280;42803;55.762;38.084;2022-12-07T06:21:13;100803.19;;;-12.54;100.00
53011;BME280;42803;55.762;38.084;2022-12-07T06:23:42;100808.22;;;-12.54;100.00
53011;BME280;42803;55.762;38.084;2022-12-07T06:26:12;100802.03;;;-12.14;100.00
53011;BME280;42803;55.762;38.084;2022-12-07T06:28:41;100806.53;;;-12.04;100.00
53011;BME280;42803;55.762;38.084;2022-12-07T06:31:10;100804.28;;;-12.16;100.00
53011;BME280;42803;55.762;38.084;2022-12-07T06:33:42;100797.53;;;-12.25;100.00
53011;BME280;42803;55.762;38.084;2022-12-07T06:36:11;100797.94;;;-12.14;100.00
53011;BME280;42803;55.762;38.084;2022-12-07T06:38:40;100797.72;;;-12.33;100.00
53011;BME280;42803;55.762;38.084;2022-12-07T06:41:09;100800.31;;;-12.37;100.00
53011;BME280;42803;55.762;38.084;2022-12-07T06:43:38;100792.13;;;-12.36;100.00
53011;BME280;42803;55.762;38.084;2022-12-07T06:46:07;100800.22;;;-12.33;100.00
53011;BME280;42803;55.762;38.084;2022-12-07T06:48:37;100795.19;;;-12.33;100.00
53011;BME280;42803;55.762;38.084;2022-12-07T06:51:07;100793.63;;;-12.33;100.00
53011;BME280;42803;55.762;38.084;2022-12-07T06:53:37;100796.03;;;-12.29;100.00
53011;BME280;42803;55.762;38.084;2022-12-07T06:56:07;100803.16;;;-12.22;100.00
53011;BME280;42803;55.762;38.084;2022-12-07T06:58:36;100794.88;;;-12.17;100.00
53011;BME280;42803;55.762;38.084;2022-12-07T07:01:09;100798.31;;;-12.16;100.00
53011;BME280;42803;55.762;38.084;2022-12-07T07:03:39;100798.50;;;-12.11;100.00
53011;BME280;42803;55.762;38.084;2022-12-07T07:06:10;100804.47;;;-11.96;100.00
53011;BME280;42803;55.762;38.084;2022-12-07T07:08:40;100798.13;;;-11.94;100.00
53011;BME280;42803;55.762;38.084;2022-12-07T07:11:09;100803.94;;;-11.86;99.59
53011;BME280;42803;55.762;38.084;2022-12-07T07:13:39;100796.50;;;-11.80;99.56
53011;BME280;42803;55.762;38.084;2022-12-07T07:16:08;100800.81;;;-11.75;99.27
53011;BME280;42803;55.762;38.084;2022-12-07T07:18:38;100802.56;;;-11.70;98.96
53011;BME280;42803;55.762;38.084;2022-12-07T07:21:07;100802.66;;;-11.60;98.68
53011;BME280;42803;55.762;38.084;2022-12-07T07:23:38;100804.13;;;-11.57;98.60
53011;BME280;42803;55.762;38.084;2022-12-07T07:26:07;100796.38;;;-11.48;98.21
53011;BME280;42803;55.762;38.084;2022-12-07T07:28:36;100796.19;;;-11.40;97.77
53011;BME280;42803;55.762;38.084;2022-12-07T07:31:05;100799.91;;;-11.38;97.43
53011;BME280;42803;55.762;38.084;2022-12-07T07:33:35;100786.28;;;-11.35;96.88
53011;BME280;42803;55.762;38.084;2022-12-07T07:36:05;100789.00;;;-11.29;96.61
53011;BME280;42803;55.762;38.084;2022-12-07T07:38:34;100794.44;;;-11.22;96.38
53011;BME280;42803;55.762;38.084;2022-12-07T07:41:04;100784.19;;;-11.14;96.34
53011;BME280;42803;55.762;38.084;2022-12-07T07:43:33;100794.78;;;-11.11;95.89
53011;BME280;42803;55.762;38.084;2022-12-07T07:46:03;100783.41;;;-11.09;95.24
53011;BME280;42803;55.762;38.084;2022-12-07T07:48:32;100777.59;;;-11.03;95.08
53011;BME280;42803;55.762;38.084;2022-12-07T07:51:05;100773.56;;;-10.93;94.87
53011;BME280;42803;55.762;38.084;2022-12-07T07:53:34;100771.38;;;-10.82;94.62
53011;BME280;42803;55.762;38.084;2022-12-07T07:56:05;100772.75;;;-10.65;94.47
53011;BME280;42803;55.762;38.084;2022-12-07T07:58:34;100781.47;;;-10.49;94.26
53011;BME280;42803;55.762;38.084;2022-12-07T08:01:04;100774.28;;;-10.51;93.47
53011;BME280;42803;55.762;38.084;2022-12-07T08:03:33;100776.88;;;-10.32;93.41
53011;BME280;42803;55.762;38.084;2022-12-07T08:06:03;100773.00;;;-10.20;92.99
53011;BME280;42803;55.762;38.084;2022-12-07T08:08:32;100775.91;;;-10.23;92.30
53011;BME280;42803;55.762;38.084;2022-12-07T08:11:06;100776.59;;;-10.24;91.50
53011;BME280;42803;55.762;38.084;2022-12-07T08:13:36;100773.84;;;-10.06;91.20
53011;BME280;42803;55.762;38.084;2022-12-07T08:16:07;100766.66;;;-10.09;90.57
53011;BME280;42803;55.762;38.084;2022-12-07T08:18:37;100764.13;;;-10.09;90.14
53011;BME280;42803;55.762;38.084;2022-12-07T08:21:10;100767.06;;;-10.01;89.71
53011;BME280;42803;55.762;38.084;2022-12-07T08:23:40;100764.16;;;-9.99;89.11
53011;BME280;42803;55.762;38.084;2022-12-07T08:26:12;100761.50;;;-9.85;88.85
53011;BME280;42803;55.762;38.084;2022-12-07T08:28:42;100754.22;;;-9.84;88.26
53011;BME280;42803;55.762;38.084;2022-12-07T08:31:14;100756.34;;;-9.91;87.69
53011;BME280;42803;55.762;38.084;2022-12-07T08:33:46;100750.88;;;-9.88;87.32
53011;BME280;42803;55.762;38.084;2022-12-07T08:36:16;100758.09;;;-9.76;87.58
53011;BME280;42803;55.762;38.084;2022-12-07T08:38:46;100751.81;;;-9.78;87.20
53011;BME280;42803;55.762;38.084;2022-12-07T08:41:36;100761.78;;;-9.84;86.57
53011;BME280;42803;55.762;38.084;2022-12-07T08:44:05;100753.00;;;-9.95;86.27
53011;BME280;42803;55.762;38.084;2022-12-07T08:46:37;100756.06;;;-9.83;86.65
53011;BME280;42803;55.762;38.084;2022-12-07T08:49:12;100755.16;;;-9.83;86.34
53011;BME280;42803;55.762;38.084;2022-12-07T08:51:42;100750.78;;;-9.84;86.42
53011;BME280;42803;55.762;38.084;2022-12-07T08:54:13;100748.25;;;-9.84;85.86
53011;BME280;42803;55.762;38.084;2022-12-07T08:56:46;100744.78;;;-9.75;85.95
53011;BME280;42803;55.762;38.084;2022-12-07T08:59:23;100748.38;;;-9.59;85.82
53011;BME280;42803;55.762;38.084;2022-12-07T09:01:52;100746.22;;;-9.62;85.39
53011;BME280;42803;55.762;38.084;2022-12-07T09:04:21;100743.84;;;-9.56;85.18
53011;BME280;42803;55.762;38.084;2022-12-07T09:06:51;100732.03;;;-9.61;84.86
53011;BME280;42803;55.762;38.084;2022-12-07T09:09:21;100735.88;;;-9.63;84.65
53011;BME280;42803;55.762;38.084;2022-12-07T09:11:52;100734.56;;;-9.61;84.32
53011;BME280;42803;55.762;38.084;2022-12-07T09:14:21;100732.38;;;-9.54;84.28
53011;BME280;42803;55.762;38.084;2022-12-07T09:16:51;100738.63;;;-9.62;83.84
53011;BME280;42803;55.762;38.084;2022-12-07T09:19:20;100722.41;;;-9.58;84.10
53011;BME280;42803;55.762;38.084;2022-12-07T09:21:50;100725.78;;;-9.53;84.06
53011;BME280;42803;55.762;38.084;2022-12-07T09:24:19;100728.28;;;-9.53;83.85
53011;BME280;42803;55.762;38.084;2022-12-07T09:26:48;100729.63;;;-9.55;83.71
53011;BME280;42803;55.762;38.084;2022-12-07T09:29:19;100719.38;;;-9.51;83.70
53011;BME280;42803;55.762;38.084;2022-12-07T09:31:48;100710.19;;;-9.41;83.55
53011;BME280;42803;55.762;38.084;2022-12-07T09:34:17;100716.69;;;-9.47;83.43
53011;BME280;42803;55.762;38.084;2022-12-07T09:36:47;100709.38;;;-9.36;83.35
53011;BME280;42803;55.762;38.084;2022-12-07T09:39:17;100709.75;;;-9.39;83.12
53011;BME280;42803;55.762;38.084;2022-12-07T09:41:46;100694.72;;;-9.33;82.92
53011;BME280;42803;55.762;38.084;2022-12-07T09:44:21;100698.34;;;-9.37;82.71
53011;BME280;42803;55.762;38.084;2022-12-07T09:46:52;100698.97;;;-9.28;82.75
53011;BME280;42803;55.762;38.084;2022-12-07T09:49:23;100693.47;;;-9.16;82.77
53011;BME280;42803;55.762;38.084;2022-12-07T09:52:02;100690.03;;;-9.16;82.51
53011;BME280;42803;55.762;38.084;2022-12-07T09:54:35;100695.34;;;-9.15;82.49
53011;BME280;42803;55.762;38.084;2022-12-07T09:57:05;100687.25;;;-9.18;82.26
53011;BME280;42803;55.762;38.084;2022-12-07T09:59:35;100687.88;;;-9.09;82.18
53011;BME280;42803;55.762;38.084;2022-12-07T10:02:23;100684.13;;;-9.01;81.99
53011;BME280;42803;55.762;38.084;2022-12-07T10:04:53;100673.06;;;-9.02;81.68
53011;BME280;42803;55.762;38.084;2022-12-07T10:07:24;100679.44;;;-8.94;81.53
53011;BME280;42803;55.762;38.084;2022-12-07T10:09:54;100675.97;;;-8.85;81.48
53011;BME280;42803;55.762;38.084;2022-12-07T10:12:23;100663.19;;;-8.91;81.20
53011;BME280;42803;55.762;38.084;2022-12-07T10:15:02;100667.16;;;-8.87;81.22
53011;BME280;42803;55.762;38.084;2022-12-07T10:17:36;100666.34;;;-8.82;81.21
53011;BME280;42803;55.762;38.084;2022-12-07T10:20:22;100674.41;;;-8.69;82.05
53011;BME280;42803;55.762;38.084;2022-12-07T10:23:15;100673.41;;;-8.60;82.39
53011;BME280;42803;55.762;38.084;2022-12-07T10:25:45;100668.56;;;-8.74;81.53
53011;BME280;42803;55.762;38.084;2022-12-07T10:28:17;100668.72;;;-8.78;80.99
53011;BME280;42803;55.762;38.084;2022-12-07T10:30:51;100673.16;;;-8.87;80.68
53011;BME280;42803;55.762;38.084;2022-12-07T10:33:44;100669.84;;;-8.91;80.56
53011;BME280;42803;55.762;38.084;2022-12-07T10:36:18;100673.31;;;-9.00;80.54
53011;BME280;42803;55.762;38.084;2022-12-07T10:38:50;100665.22;;;-8.69;81.72
53011;BME280;42803;55.762;38.084;2022-12-07T10:41:19;100654.88;;;-8.80;81.32
53011;BME280;42803;55.762;38.084;2022-12-07T10:43:51;100660.25;;;-8.88;80.96
53011;BME280;42803;55.762;38.084;2022-12-07T10:46:50;100651.63;;;-8.94;80.70
53011;BME280;42803;55.762;38.084;2022-12-07T10:49:45;100656.97;;;-8.93;80.50
53011;BME280;42803;55.762;38.084;2022-12-07T10:55:22;100649.91;;;-8.99;80.80
53011;BME280;42803;55.762;38.084;2022-12-07T10:58:05;100637.78;;;-8.96;80.83
53011;BME280;42803;55.762;38.084;2022-12-07T11:00:47;100643.66;;;-9.01;81.10
53011;BME280;42803;55.762;38.084;2022-12-07T11:03:51;100640.44;;;-9.00;80.82
53011;BME280;42803;55.762;38.084;2022-12-07T11:06:29;100638.75;;;-9.05;80.84
53011;BME280;42803;55.762;38.084;2022-12-07T11:09:12;100637.13;;;-8.95;81.54
53011;BME280;42803;55.762;38.084;2022-12-07T11:12:15;100635.16;;;-8.77;82.26
53011;BME280;42803;55.762;38.084;2022-12-07T11:14:48;100636.81;;;-8.87;81.72
53011;BME280;42803;55.762;38.084;2022-12-07T11:17:29;100637.72;;;-9.12;81.57
53011;BME280;42803;55.762;38.084;2022-12-07T11:20:15;100636.69;;;-9.18;81.54
53011;BME280;42803;55.762;38.084;2022-12-07T11:23:04;100628.03;;;-9.24;81.81
53011;BME280;42803;55.762;38.084;2022-12-07T11:25:49;100627.66;;;-9.31;82.03
53011;BME280;42803;55.762;38.084;2022-12-07T11:28:32;100624.47;;;-9.30;82.26
53011;BME280;42803;55.762;38.084;2022-12-07T11:31:10;100617.16;;;-9.28;82.54
53011;BME280;42803;55.762;38.084;2022-12-07T11:33:44;100622.91;;;-9.39;82.58
53011;BME280;42803;55.762;38.084;2022-12-07T11:36:31;100619.75;;;-9.48;82.88
53011;BME280;42803;55.762;38.084;2022-12-07T11:39:14;100619.34;;;-9.45;83.29
53011;BME280;42803;55.762;38.084;2022-12-07T11:41:45;100626.50;;;-9.43;83.49
53011;BME280;42803;55.762;38.084;2022-12-07T11:44:25;100613.69;;;-9.29;84.11
53011;BME280;42803;55.762;38.084;2022-12-07T11:47:01;100613.91;;;-9.52;83.32
53011;BME280;42803;55.762;38.084;2022-12-07T11:49:40;100611.69;;;-9.70;83.31
53011;BME280;42803;55.762;38.084;2022-12-07T11:52:20;100609.44;;;-9.78;83.72
53011;BME280;42803;55.762;38.084;2022-12-07T11:54:52;100598.28;;;-9.85;84.11
53011;BME280;42803;55.762;38.084;2022-12-07T11:57:28;100608.94;;;-9.91;84.33
53011;BME280;42803;55.762;38.084;2022-12-07T12:00:05;100602.81;;;-9.97;84.61
53011;BME280;42803;55.762;38.084;2022-12-07T12:02:38;100607.75;;;-10.03;84.74
53011;BME280;42803;55.762;38.084;2022-12-07T12:05:16;100602.56;;;-10.09;84.93
53011;BME280;42803;55.762;38.084;2022-12-07T12:07:50;100599.00;;;-10.15;85.38
53011;BME280;42803;55.762;38.084;2022-12-07T12:10:53;100589.94;;;-9.99;86.24
53011;BME280;42803;55.762;38.084;2022-12-07T12:17:05;100585.03;;;-10.13;86.93
53011;BME280;42803;55.762;38.084;2022-12-07T12:19:42;100591.66;;;-10.23;86.69
53011;BME280;42803;55.762;38.084;2022-12-07T12:22:15;100595.78;;;-10.23;87.17
53011;BME280;42803;55.762;38.084;2022-12-07T12:24:50;100587.84;;;-10.31;87.28
53011;BME280;42803;55.762;38.084;2022-12-07T12:27:24;100596.75;;;-10.42;87.03
53011;BME280;42803;55.762;38.084;2022-12-07T12:29:55;100594.34;;;-10.46;87.55
53011;BME280;42803;55.762;38.084;2022-12-07T12:32:36;100587.06;;;-10.54;87.97
53011;BME280;42803;55.762;38.084;2022-12-07T12:35:28;100592.63;;;-10.51;88.32
53011;BME280;42803;55.762;38.084;2022-12-07T12:38:28;100587.06;;;-10.54;88.70
53011;BME280;42803;55.762;38.084;2022-12-07T12:41:00;100594.22;;;-10.62;88.86
53011;BME280;42803;55.762;38.084;2022-12-07T12:43:47;100592.19;;;-10.78;88.90
53011;BME280;42803;55.762;38.084;2022-12-07T12:46:49;100592.19;;;-10.78;89.17
53011;BME280;42803;55.762;38.084;2022-12-07T12:49:34;100594.31;;;-10.85;89.66
53011;BME280;42803;55.762;38.084;2022-12-07T12:55:19;100584.72;;;-11.01;89.83
53011;BME280;42803;55.762;38.084;2022-12-07T13:04:40;100578.03;;;-11.11;91.09
53011;BME280;42803;55.762;38.084;2022-12-07T13:07:54;100575.03;;;-11.04;91.56
53011;BME280;42803;55.762;38.084;2022-12-07T13:10:43;100582.03;;;-11.17;91.67
53011;BME280;42803;55.762;38.084;2022-12-07T13:13:33;100579.94;;;-11.33;91.62
53011;BME280;42803;55.762;38.084;2022-12-07T13:22:47;100577.59;;;-11.61;92.85
53011;BME280;42803;55.762;38.084;2022-12-07T13:25:30;100582.06;;;-11.64;92.87
53011;BME280;42803;55.762;38.084;2022-12-07T13:28:06;100576.50;;;-11.67;93.55
53011;BME280;42803;55.762;38.084;2022-12-07T13:30:45;100582.28;;;-11.72;93.65